createdAt,value
2018-11-25T00:00:48.407Z,7.20
2018-11-25T00:03:16.315Z,7.10
2018-11-25T00:05:44.230Z,7.10
2018-11-25T00:08:12.174Z,7.10
2018-11-25T00:10:40.107Z,7.10
2018-11-25T00:13:08.032Z,7.10
2018-11-25T00:15:35.956Z,7.10
2018-11-25T00:18:04.385Z,7.10
2018-11-25T00:20:32.339Z,7.10
2018-11-25T00:23:00.263Z,7.10
2018-11-25T00:25:28.216Z,7.10
2018-11-25T00:27:56.119Z,7.20
2018-11-25T00:30:24.030Z,7.20
2018-11-25T00:32:51.945Z,7.20
2018-11-25T00:35:19.885Z,7.20
2018-11-25T00:37:48.860Z,7.30
2018-11-25T00:40:15.929Z,7.30
2018-11-25T00:42:44.445Z,7.30
2018-11-25T00:45:13.747Z,7.30
2018-11-25T00:47:41.680Z,7.20
2018-11-25T00:50:11.047Z,7.20
2018-11-25T00:52:39.020Z,7.20
2018-11-25T00:55:08.974Z,7.30
2018-11-25T00:57:36.928Z,7.20
2018-11-25T01:00:08.265Z,7.20
2018-11-25T01:02:36.192Z,7.20
2018-11-25T01:05:04.135Z,7.20
2018-11-25T01:07:32.056Z,7.10
2018-11-25T01:10:00.033Z,7.20
2018-11-25T01:12:27.979Z,7.20
2018-11-25T01:14:55.914Z,7.20
2018-11-25T01:17:23.830Z,7.30
2018-11-25T01:19:51.787Z,7.20
2018-11-25T01:22:19.726Z,7.20
2018-11-25T01:24:47.678Z,7.20
2018-11-25T01:27:15.601Z,7.20
2018-11-25T01:29:43.530Z,7.20
2018-11-25T01:32:11.486Z,7.20
2018-11-25T01:34:39.452Z,7.30
2018-11-25T01:37:07.511Z,7.20
2018-11-25T01:39:35.445Z,7.20
2018-11-25T01:42:03.417Z,7.20
2018-11-25T01:44:31.359Z,7.20
2018-11-25T01:46:59.274Z,7.20
2018-11-25T01:49:27.192Z,7.20
2018-11-25T01:51:55.357Z,7.20
2018-11-25T01:54:23.516Z,7.20
2018-11-25T01:56:51.464Z,7.20
2018-11-25T01:59:19.409Z,7.20
2018-11-25T02:01:47.364Z,7.30
2018-11-25T02:04:15.285Z,7.30
2018-11-25T02:06:43.299Z,7.20
2018-11-25T02:09:12.129Z,7.20
2018-11-25T02:11:40.088Z,7.20
2018-11-25T02:14:08.017Z,7.10
2018-11-25T02:16:35.965Z,7.10
2018-11-25T02:19:03.912Z,7.00
2018-11-25T02:21:31.843Z,7.00
2018-11-25T02:23:59.783Z,7.00
2018-11-25T02:26:27.721Z,7.00
2018-11-25T02:28:55.629Z,7.00
2018-11-25T02:31:23.571Z,7.00
2018-11-25T02:33:51.493Z,7.00
2018-11-25T02:37:14.102Z,7.10
2018-11-25T02:39:42.034Z,7.00
2018-11-25T02:42:09.954Z,7.10
2018-11-25T02:44:37.890Z,7.10
2018-11-25T02:47:05.856Z,7.10
2018-11-25T02:49:33.808Z,7.10
2018-11-25T02:52:01.725Z,7.10
2018-11-25T02:54:29.642Z,7.10
2018-11-25T02:56:57.594Z,7.10
2018-11-25T02:59:25.509Z,7.10
2018-11-25T03:01:53.406Z,7.10
2018-11-25T03:04:21.586Z,7.10
2018-11-25T03:06:50.457Z,7.10
2018-11-25T03:09:18.428Z,7.10
2018-11-25T03:11:46.395Z,7.10
2018-11-25T03:14:14.399Z,7.20
2018-11-25T03:16:42.344Z,7.20
2018-11-25T03:19:10.211Z,7.20
2018-11-25T03:21:38.123Z,7.20
2018-11-25T03:24:06.545Z,7.20
2018-11-25T03:26:33.972Z,7.20
2018-11-25T03:29:01.893Z,7.10
2018-11-25T03:31:29.823Z,7.10
2018-11-25T03:33:57.817Z,7.00
2018-11-25T03:36:25.748Z,6.90
2018-11-25T03:38:53.665Z,6.80
2018-11-25T03:41:21.633Z,6.90
2018-11-25T03:43:49.552Z,6.90
2018-11-25T03:46:17.496Z,6.90
2018-11-25T03:48:45.394Z,6.90
2018-11-25T03:51:13.327Z,6.90
2018-11-25T03:53:41.286Z,6.90
2018-11-25T03:56:09.197Z,6.90
2018-11-25T03:58:37.167Z,6.90
2018-11-25T04:01:05.448Z,7.00
2018-11-25T04:03:33.383Z,6.90
2018-11-25T04:06:01.321Z,6.90
2018-11-25T04:08:29.278Z,6.90
2018-11-25T04:10:57.187Z,6.90
2018-11-25T04:13:25.159Z,6.90
2018-11-25T04:15:53.092Z,7.00
2018-11-25T04:18:21.037Z,6.90
2018-11-25T04:20:48.986Z,6.90
2018-11-25T04:23:16.983Z,6.90
2018-11-25T04:25:44.933Z,6.90
2018-11-25T04:28:12.849Z,6.90
2018-11-25T04:30:40.752Z,6.80
2018-11-25T04:33:08.910Z,6.80
2018-11-25T04:35:36.854Z,6.70
2018-11-25T04:38:05.018Z,6.80
2018-11-25T04:40:32.960Z,6.80
2018-11-25T04:43:01.138Z,6.80
2018-11-25T04:45:29.059Z,6.90
2018-11-25T04:47:56.987Z,6.80
2018-11-25T04:50:24.974Z,6.90
2018-11-25T04:52:52.862Z,6.80
2018-11-25T04:55:20.787Z,6.90
2018-11-25T04:57:50.766Z,6.90
2018-11-25T05:00:18.928Z,6.80
2018-11-25T05:02:46.948Z,6.80
2018-11-25T05:05:15.413Z,6.80
2018-11-25T05:07:43.329Z,6.80
2018-11-25T05:10:13.364Z,6.80
2018-11-25T05:12:41.332Z,6.80
2018-11-25T05:15:12.664Z,6.80
2018-11-25T05:17:40.610Z,6.80
2018-11-25T05:20:09.669Z,6.80
2018-11-25T05:22:37.645Z,6.70
2018-11-25T05:25:07.451Z,6.80
2018-11-25T05:27:35.424Z,6.80
2018-11-25T05:30:03.763Z,6.80
2018-11-25T05:32:31.702Z,6.80
2018-11-25T05:34:59.605Z,6.80
2018-11-25T05:37:27.858Z,6.70
2018-11-25T05:39:55.793Z,6.70
2018-11-25T05:42:23.749Z,6.70
2018-11-25T05:44:51.678Z,6.70
2018-11-25T05:47:19.593Z,6.70
2018-11-25T05:49:47.822Z,6.70
2018-11-25T05:52:15.737Z,6.60
2018-11-25T05:54:43.673Z,6.60
2018-11-25T05:57:11.630Z,6.70
2018-11-25T05:59:39.632Z,6.70
2018-11-25T06:02:07.564Z,6.70
2018-11-25T06:04:35.777Z,6.70
2018-11-25T06:07:03.712Z,6.80
2018-11-25T06:09:32.584Z,6.60
2018-11-25T06:12:00.531Z,6.60
2018-11-25T06:14:28.482Z,6.60
2018-11-25T06:16:56.417Z,6.70
2018-11-25T06:19:24.394Z,6.70
2018-11-25T06:21:52.318Z,6.70
2018-11-25T06:24:20.308Z,6.60
2018-11-25T06:26:48.235Z,6.70
2018-11-25T06:29:16.162Z,6.70
2018-11-25T06:31:44.084Z,6.60
2018-11-25T06:34:12.036Z,6.70
2018-11-25T06:36:40.020Z,6.60
2018-11-25T06:39:08.956Z,6.60
2018-11-25T06:41:36.900Z,6.50
2018-11-25T06:44:05.148Z,6.60
2018-11-25T06:46:33.079Z,6.50
2018-11-25T06:49:01.039Z,6.50
2018-11-25T06:51:28.987Z,6.50
2018-11-25T06:53:56.924Z,6.50
2018-11-25T06:56:27.482Z,6.50
2018-11-25T06:58:52.808Z,6.50
2018-11-25T07:01:20.758Z,6.60
2018-11-25T07:03:48.683Z,6.60
2018-11-25T07:06:16.626Z,6.60
2018-11-25T07:08:45.537Z,6.60
2018-11-25T07:11:13.496Z,6.60
2018-11-25T07:13:41.711Z,6.60
2018-11-25T07:16:09.639Z,6.60
2018-11-25T07:18:37.568Z,6.60
2018-11-25T07:21:05.497Z,6.60
2018-11-25T07:23:33.394Z,6.60
2018-11-25T07:26:01.365Z,6.60
2018-11-25T07:28:29.314Z,6.50
2018-11-25T07:30:57.230Z,6.50
2018-11-25T07:33:25.146Z,6.60
2018-11-25T07:35:53.118Z,6.60
2018-11-25T07:38:21.045Z,6.60
2018-11-25T07:40:48.971Z,6.60
2018-11-25T07:43:16.943Z,6.60
2018-11-25T07:45:44.851Z,6.50
2018-11-25T07:48:12.758Z,6.50
2018-11-25T07:50:40.702Z,6.40
2018-11-25T07:53:08.669Z,6.40
2018-11-25T07:55:36.576Z,6.40
2018-11-25T07:58:04.646Z,6.40
2018-11-25T08:00:32.835Z,6.30
2018-11-25T08:03:00.735Z,6.20
2018-11-25T08:05:28.724Z,6.20
2018-11-25T08:07:56.623Z,6.30
2018-11-25T08:10:24.546Z,6.30
2018-11-25T08:12:52.497Z,6.30
2018-11-25T08:15:20.584Z,6.30
2018-11-25T08:17:48.501Z,6.30
2018-11-25T08:20:17.586Z,6.30
2018-11-25T08:22:45.801Z,6.40
2018-11-25T08:25:14.788Z,6.40
2018-11-25T08:27:42.719Z,6.40
2018-11-25T08:30:12.889Z,6.40
2018-11-25T08:32:40.817Z,6.40
2018-11-25T08:35:09.392Z,6.40
2018-11-25T08:37:37.496Z,6.40
2018-11-25T08:40:08.789Z,6.40
2018-11-25T08:42:36.756Z,6.40
2018-11-25T08:45:06.604Z,6.50
2018-11-25T08:47:34.547Z,6.50
2018-11-25T08:50:02.511Z,6.30
2018-11-25T08:52:30.577Z,6.40
2018-11-25T08:54:58.550Z,6.50
2018-11-25T08:57:26.476Z,6.50
2018-11-25T08:59:54.959Z,6.50
2018-11-25T09:02:22.887Z,6.60
2018-11-25T09:04:51.909Z,6.60
2018-11-25T09:07:20.163Z,6.60
2018-11-25T09:09:48.199Z,6.60
2018-11-25T09:12:16.142Z,6.70
2018-11-25T09:14:44.157Z,6.70
2018-11-25T09:17:12.081Z,6.70
2018-11-25T09:19:40.041Z,6.70
2018-11-25T09:22:08.029Z,6.80
2018-11-25T09:24:35.967Z,6.80
2018-11-25T09:27:03.914Z,6.80
2018-11-25T09:29:31.878Z,6.80
2018-11-25T09:31:59.811Z,6.80
2018-11-25T09:34:27.713Z,6.90
2018-11-25T09:36:55.919Z,6.90
2018-11-25T09:39:23.835Z,7.00
2018-11-25T09:41:51.755Z,7.00
2018-11-25T09:44:19.793Z,7.10
2018-11-25T09:46:47.725Z,7.10
2018-11-25T09:49:15.661Z,7.10
2018-11-25T09:51:43.644Z,7.10
2018-11-25T09:54:11.599Z,7.20
2018-11-25T09:56:39.529Z,7.30
2018-11-25T09:59:07.496Z,7.20
2018-11-25T10:01:35.401Z,7.30
2018-11-25T10:04:03.336Z,7.30
2018-11-25T10:06:31.278Z,7.30
2018-11-25T10:08:59.236Z,7.30
2018-11-25T10:11:27.169Z,7.20
2018-11-25T10:13:55.111Z,7.30
2018-11-25T10:16:23.098Z,7.30
2018-11-25T10:18:51.038Z,7.30
2018-11-25T10:21:19.066Z,7.30
2018-11-25T10:23:46.987Z,7.20
2018-11-25T10:26:14.956Z,7.30
2018-11-25T10:28:43.016Z,7.20
2018-11-25T10:31:10.876Z,7.30
2018-11-25T10:33:38.854Z,7.30
2018-11-25T10:36:06.816Z,7.30
2018-11-25T10:38:34.764Z,7.20
2018-11-25T10:41:02.683Z,7.30
2018-11-25T10:43:30.620Z,7.30
2018-11-25T10:45:58.523Z,7.30
2018-11-25T10:48:26.466Z,7.30
2018-11-25T10:50:54.648Z,7.30
2018-11-25T10:53:22.575Z,7.20
2018-11-25T10:55:50.512Z,7.10
2018-11-25T10:58:18.666Z,7.10
2018-11-25T11:00:53.622Z,7.00
2018-11-25T11:03:40.945Z,6.90
2018-11-25T11:06:28.121Z,6.90
2018-11-25T11:08:56.366Z,6.90
2018-11-25T11:11:24.387Z,6.90
2018-11-25T11:13:52.323Z,7.00
2018-11-25T11:16:20.255Z,7.00
2018-11-25T11:18:48.192Z,7.00
2018-11-25T11:21:16.124Z,7.00
2018-11-25T11:23:44.080Z,7.00
2018-11-25T11:26:27.057Z,7.00
2018-11-25T11:28:55.018Z,7.00
2018-11-25T11:31:22.981Z,7.00
2018-11-25T11:33:51.521Z,7.00
2018-11-25T11:36:19.455Z,6.80
2018-11-25T11:38:47.388Z,6.90
2018-11-25T11:41:15.374Z,6.90
2018-11-25T11:43:43.312Z,6.90
2018-11-25T11:46:11.211Z,6.90
2018-11-25T11:48:39.134Z,6.90
2018-11-25T11:51:07.049Z,6.90
2018-11-25T11:53:34.922Z,6.80
2018-11-25T11:56:02.874Z,6.70
2018-11-25T11:58:30.810Z,6.80
2018-11-25T12:00:59.479Z,6.80
2018-11-25T12:03:27.441Z,6.70
2018-11-25T12:05:55.389Z,6.70
2018-11-25T12:08:23.337Z,6.60
2018-11-25T12:10:51.279Z,6.70
2018-11-25T12:13:21.020Z,6.70
2018-11-25T12:15:49.209Z,6.70
2018-11-25T12:18:17.120Z,6.60
2018-11-25T12:20:45.059Z,6.60
2018-11-25T12:23:12.977Z,6.60
2018-11-25T12:25:40.912Z,6.60
2018-11-25T12:28:08.855Z,6.50
2018-11-25T12:30:36.822Z,6.40
2018-11-25T12:33:04.932Z,6.40
2018-11-25T12:35:32.966Z,6.40
2018-11-25T12:38:01.162Z,6.40
2018-11-25T12:40:29.152Z,6.50
2018-11-25T12:42:57.988Z,6.50
2018-11-25T12:45:25.916Z,6.50
2018-11-25T12:47:53.869Z,6.50
2018-11-25T12:50:23.054Z,6.40
2018-11-25T12:52:51.074Z,6.20
2018-11-25T12:55:20.135Z,6.30
2018-11-25T12:57:48.359Z,6.40
2018-11-25T13:00:36.362Z,6.40
2018-11-25T13:03:04.772Z,6.40
2018-11-25T13:05:32.965Z,6.30
2018-11-25T13:08:00.868Z,6.30
2018-11-25T13:10:28.810Z,6.30
2018-11-25T13:12:59.778Z,6.20
2018-11-25T13:15:27.792Z,6.10
2018-11-25T13:17:55.709Z,6.20
2018-11-25T13:20:23.619Z,6.20
2018-11-25T13:22:52.447Z,6.20
2018-11-25T13:25:20.443Z,6.10
2018-11-25T13:27:48.393Z,6.10
2018-11-25T13:30:20.341Z,6.00
2018-11-25T13:32:47.961Z,6.00
2018-11-25T13:35:15.876Z,6.00
2018-11-25T13:37:43.831Z,6.00
2018-11-25T13:40:12.976Z,6.00
2018-11-25T13:42:40.877Z,5.90
2018-11-25T13:45:08.874Z,6.00
2018-11-25T13:47:36.815Z,6.00
2018-11-25T13:50:05.187Z,5.90
2018-11-25T13:52:33.157Z,6.00
2018-11-25T13:55:01.113Z,6.00
2018-11-25T13:57:29.040Z,6.00
2018-11-25T13:59:57.125Z,5.90
2018-11-25T14:02:25.070Z,5.80
2018-11-25T14:04:53.266Z,5.80
2018-11-25T14:07:21.173Z,5.80
2018-11-25T14:09:49.664Z,5.70
2018-11-25T14:12:17.609Z,5.80
2018-11-25T14:14:45.528Z,5.80
2018-11-25T14:17:13.447Z,5.80
2018-11-25T14:19:41.389Z,5.60
2018-11-25T14:22:09.347Z,5.60
2018-11-25T14:24:37.268Z,5.70
2018-11-25T14:27:06.675Z,5.80
2018-11-25T14:29:34.631Z,5.80
2018-11-25T14:32:02.577Z,5.70
2018-11-25T14:34:30.525Z,5.70
2018-11-25T14:36:58.450Z,5.70
2018-11-25T14:39:26.415Z,5.70
2018-11-25T14:41:54.349Z,5.80
2018-11-25T14:44:22.263Z,5.80
2018-11-25T14:46:50.205Z,5.80
2018-11-25T14:49:18.089Z,5.80
2018-11-25T14:51:46.011Z,5.90
2018-11-25T14:54:13.956Z,5.80
2018-11-25T14:56:41.884Z,5.90
2018-11-25T14:59:09.780Z,5.80
2018-11-25T15:01:37.746Z,5.70
2018-11-25T15:04:06.114Z,5.80
2018-11-25T15:06:34.048Z,5.80
2018-11-25T15:09:01.997Z,5.80
2018-11-25T15:11:29.901Z,5.80
2018-11-25T15:13:57.809Z,5.70
2018-11-25T15:16:25.727Z,5.80
2018-11-25T15:18:53.704Z,5.80
2018-11-25T15:21:21.617Z,5.70
2018-11-25T15:23:49.543Z,5.60
2018-11-25T15:26:18.183Z,5.60
2018-11-25T15:28:46.096Z,5.70
2018-11-25T15:31:14.016Z,5.70
2018-11-25T15:33:41.975Z,5.60
2018-11-25T15:36:09.910Z,5.60
2018-11-25T15:38:37.844Z,5.70
2018-11-25T15:41:06.072Z,5.70
2018-11-25T15:43:34.023Z,5.70
2018-11-25T15:46:01.978Z,5.70
2018-11-25T15:48:30.794Z,5.70
2018-11-25T15:50:58.699Z,5.60
2018-11-25T15:53:26.637Z,5.60
2018-11-25T15:55:56.415Z,5.60
2018-11-25T15:58:24.328Z,5.70
2018-11-25T16:00:52.508Z,5.70
2018-11-25T16:03:20.405Z,5.60
2018-11-25T16:05:53.586Z,5.60
2018-11-25T16:08:21.488Z,5.60
2018-11-25T16:10:49.421Z,5.50
2018-11-25T16:13:17.316Z,5.50
2018-11-25T16:15:45.262Z,5.50
2018-11-25T16:18:13.179Z,5.60
2018-11-25T16:20:41.075Z,5.50
2018-11-25T16:23:10.041Z,5.50
2018-11-25T16:25:48.040Z,5.50
2018-11-25T16:28:24.708Z,5.60
2018-11-25T16:30:52.621Z,5.60
2018-11-25T16:33:20.531Z,5.50
2018-11-25T16:35:48.466Z,5.50
2018-11-25T16:38:16.398Z,5.50
2018-11-25T16:40:44.608Z,5.60
2018-11-25T16:43:12.556Z,5.60
2018-11-25T16:45:40.466Z,5.70
2018-11-25T16:48:08.520Z,5.70
2018-11-25T16:50:36.438Z,5.70
2018-11-25T16:53:04.702Z,5.70
2018-11-25T16:55:32.615Z,5.70
2018-11-25T16:58:00.524Z,5.60
2018-11-25T17:00:28.464Z,5.60
2018-11-25T17:02:56.356Z,5.60
2018-11-25T17:05:26.091Z,5.60
2018-11-25T17:07:59.058Z,5.60
2018-11-25T17:10:27.178Z,5.50
2018-11-25T17:12:55.067Z,5.50
2018-11-25T17:15:24.457Z,5.50
2018-11-25T17:17:52.630Z,5.50
2018-11-25T17:20:20.610Z,5.50
2018-11-25T17:22:48.487Z,5.50
2018-11-25T17:25:16.607Z,5.40
2018-11-25T17:27:44.505Z,5.50
2018-11-25T17:30:14.687Z,5.50
2018-11-25T17:32:43.349Z,5.50
2018-11-25T17:35:12.907Z,5.50
2018-11-25T17:37:41.142Z,5.50
2018-11-25T17:40:09.714Z,5.60
2018-11-25T17:42:38.131Z,5.50
2018-11-25T17:45:08.136Z,5.50
2018-11-25T17:47:36.254Z,5.60
2018-11-25T17:50:10.092Z,5.50
2018-11-25T17:52:35.855Z,5.50
2018-11-25T17:55:03.940Z,5.50
2018-11-25T17:57:32.117Z,5.60
2018-11-25T18:00:00.131Z,5.60
2018-11-25T18:02:28.060Z,5.50
2018-11-25T18:04:56.052Z,5.50
2018-11-25T18:07:24.019Z,5.50
2018-11-25T18:09:52.059Z,5.60
2018-11-25T18:12:20.145Z,5.50
2018-11-25T18:14:48.142Z,5.60
2018-11-25T18:17:16.414Z,5.60
2018-11-25T18:19:44.467Z,5.60
2018-11-25T18:22:19.268Z,5.60
2018-11-25T18:24:47.231Z,5.50
2018-11-25T18:27:15.227Z,5.50
2018-11-25T18:29:43.238Z,5.60
2018-11-25T18:32:11.174Z,5.60
2018-11-25T18:34:39.124Z,5.60
2018-11-25T18:37:07.081Z,5.70
2018-11-25T18:39:35.033Z,5.70
2018-11-25T18:42:02.941Z,5.70
2018-11-25T18:44:31.164Z,5.70
2018-11-25T18:46:59.107Z,5.70
2018-11-25T18:49:27.011Z,5.70
2018-11-25T18:51:54.957Z,5.80
2018-11-25T18:54:22.897Z,5.80
2018-11-25T18:56:50.809Z,5.70
2018-11-25T18:59:18.704Z,5.70
2018-11-25T19:01:49.448Z,5.70
2018-11-25T19:04:17.373Z,5.70
2018-11-25T19:06:45.329Z,5.70
2018-11-25T19:09:13.252Z,5.70
2018-11-25T19:11:41.305Z,5.70
2018-11-25T19:14:09.229Z,5.70
2018-11-25T19:16:37.726Z,5.70
2018-11-25T19:19:05.485Z,5.70
2018-11-25T19:21:33.485Z,5.70
2018-11-25T19:24:01.504Z,5.80
2018-11-25T19:26:29.447Z,5.80
2018-11-25T19:28:57.395Z,5.70
2018-11-25T19:31:26.028Z,5.80
2018-11-25T19:33:53.977Z,5.80
2018-11-25T19:36:21.977Z,5.70
2018-11-25T19:38:49.939Z,5.70
2018-11-25T19:41:17.908Z,5.80
2018-11-25T19:43:45.823Z,5.70
2018-11-25T19:46:13.805Z,5.70
2018-11-25T19:48:41.791Z,5.70
2018-11-25T19:51:17.429Z,5.80
2018-11-25T19:53:37.680Z,5.70
2018-11-25T19:56:05.712Z,5.70
2018-11-25T19:58:33.691Z,5.70
2018-11-25T20:01:01.645Z,5.70
2018-11-25T20:03:29.607Z,5.70
2018-11-25T20:05:57.805Z,5.70
2018-11-25T20:08:25.738Z,5.70
2018-11-25T20:10:53.674Z,5.70
2018-11-25T20:13:21.834Z,5.70
2018-11-25T20:15:49.738Z,5.70
2018-11-25T20:18:17.677Z,5.70
2018-11-25T20:21:04.912Z,5.70
2018-11-25T20:23:32.808Z,5.70
2018-11-25T20:26:00.762Z,5.70
2018-11-25T20:28:28.763Z,5.70
2018-11-25T20:30:56.762Z,5.70
2018-11-25T20:33:44.301Z,5.70
2018-11-25T20:36:12.200Z,5.70
2018-11-25T20:38:59.422Z,5.80
2018-11-25T20:41:27.339Z,5.70
2018-11-25T20:43:55.307Z,5.80
2018-11-25T20:46:42.786Z,5.80
2018-11-25T20:49:10.792Z,5.70
2018-11-25T20:51:58.088Z,5.70
2018-11-25T20:54:26.085Z,5.70
2018-11-25T20:56:54.282Z,5.60
2018-11-25T20:59:22.225Z,5.60
2018-11-25T21:01:50.167Z,5.70
2018-11-25T21:04:18.162Z,5.70
2018-11-25T21:06:46.185Z,5.70
2018-11-25T21:09:14.239Z,5.70
2018-11-25T21:11:42.450Z,5.70
2018-11-25T21:14:10.581Z,5.80
2018-11-25T21:16:38.623Z,5.70
2018-11-25T21:19:06.745Z,5.70
2018-11-25T21:21:34.799Z,5.70
2018-11-25T21:24:03.081Z,5.70
2018-11-25T21:26:31.097Z,5.70
2018-11-25T21:29:01.983Z,5.70
2018-11-25T21:31:30.004Z,5.70
2018-11-25T21:33:58.004Z,5.70
2018-11-25T21:36:25.945Z,5.70
2018-11-25T21:38:53.952Z,5.70
2018-11-25T21:41:22.068Z,5.60
2018-11-25T21:43:50.042Z,5.70
2018-11-25T21:46:18.050Z,5.70
2018-11-25T21:48:46.024Z,5.70
2018-11-25T21:51:14.158Z,5.70
2018-11-25T21:53:42.239Z,5.60
2018-11-25T21:56:14.446Z,5.70
2018-11-25T21:58:40.801Z,5.70
2018-11-25T22:01:08.782Z,5.70
2018-11-25T22:03:36.740Z,5.70
2018-11-25T22:06:04.726Z,5.60
2018-11-25T22:08:32.770Z,5.70
2018-11-25T22:11:00.839Z,5.70
2018-11-25T22:13:28.878Z,5.70
2018-11-25T22:15:57.318Z,5.70
2018-11-25T22:18:25.028Z,5.70
2018-11-25T22:20:53.312Z,5.60
2018-11-25T22:23:21.332Z,5.70
2018-11-25T22:25:49.364Z,5.70
2018-11-25T22:28:19.138Z,5.70
2018-11-25T22:30:47.283Z,5.80
2018-11-25T22:33:15.550Z,5.70
2018-11-25T22:35:43.612Z,5.80
2018-11-25T22:38:11.554Z,5.80
2018-11-25T22:40:39.508Z,5.80
2018-11-25T22:43:07.559Z,5.80
2018-11-25T22:45:35.511Z,5.70
2018-11-25T22:48:03.435Z,5.70
2018-11-25T22:50:31.347Z,5.80
2018-11-25T22:52:59.260Z,5.70
2018-11-25T22:55:27.190Z,5.70
2018-11-25T22:57:55.167Z,5.70
2018-11-25T23:00:38.090Z,5.70
2018-11-25T23:03:06.723Z,5.70
2018-11-25T23:06:13.196Z,5.70
2018-11-25T23:08:41.095Z,5.70
2018-11-25T23:11:09.022Z,5.60
2018-11-25T23:13:36.963Z,5.60
2018-11-25T23:16:05.099Z,5.60
2018-11-25T23:18:33.049Z,5.60
2018-11-25T23:21:00.963Z,5.60
2018-11-25T23:23:29.228Z,5.60
2018-11-25T23:25:57.143Z,5.60
2018-11-25T23:28:25.037Z,5.60
2018-11-25T23:30:52.975Z,5.60
2018-11-25T23:33:20.904Z,5.60
2018-11-25T23:35:48.851Z,5.60
2018-11-25T23:38:16.759Z,5.60
2018-11-25T23:40:44.701Z,5.60
2018-11-25T23:43:12.649Z,5.60
2018-11-25T23:45:40.555Z,5.60
2018-11-25T23:48:08.476Z,5.60
2018-11-25T23:50:37.229Z,5.60
2018-11-25T23:53:05.841Z,5.70
2018-11-25T23:55:33.782Z,5.70
2018-11-25T23:58:01.723Z,5.70
